Time;durP1;ratioP1;P1;durP2;ratioP2;P2;SDS_P1;SDS_P2;PMS_P1;PMS_P2;Temp;Humidity;BMP_temperature;BMP_pressure;BME280_temperature;BME280_humidity;BME280_pressure;Samples;Min_cycle;Max_cycle;Signal;HPM_P1;HPM_P2
2024/01/03 00:00:06;;;;;;;3.15;1.00;;;;;;;;;;2079968;28;20030;-73
2024/01/03 00:01:26;;;;;;;1.55;1.10;;;;;;;;;;2082796;28;20065;-73
2024/01/03 00:02:48;;;;;;;2.22;1.00;;;;;;;;;;2082508;28;20029;-73
2024/01/03 00:04:10;;;;;;;2.90;1.23;;;;;;;;;;2075304;28;20037;-73
2024/01/03 00:05:37;;;;;;;1.30;1.05;;;;;;;;;;2076391;28;20073;-73
2024/01/03 00:06:56;;;;;;;1.73;1.10;;;;;;;;;;2078310;28;20064;-73
2024/01/03 00:08:18;;;;;;;2.72;1.08;;;;;;;;;;2077874;28;20033;-76
2024/01/03 00:09:37;;;;;;;1.75;1.00;;;;;;;;;;2087433;28;20022;-73
2024/01/03 00:10:57;;;;;;;1.48;1.27;;;;;;;;;;2084084;28;20067;-73
2024/01/03 00:12:22;;;;;;;1.60;1.20;;;;;;;;;;2079657;28;20022;-73
2024/01/03 00:14:00;;;;;;;2.72;1.00;;;;;;;;;;2067575;28;20034;-74
2024/01/03 00:15:34;;;;;;;3.08;1.10;;;;;;;;;;2071219;28;20499;-73
2024/01/03 00:16:58;;;;;;;1.80;0.82;;;;;;;;;;2071471;28;20030;-73
2024/01/03 00:18:29;;;;;;;3.40;1.23;;;;;;;;;;2083705;28;20742;-75
2024/01/03 00:19:53;;;;;;;3.95;1.00;;;;;;;;;;2087275;28;20053;-74
2024/01/03 00:21:14;;;;;;;3.20;1.30;;;;;;;;;;2088533;28;20021;-74
2024/01/03 00:22:33;;;;;;;1.10;0.95;;;;;;;;;;2077753;28;20061;-74
2024/01/03 00:23:56;;;;;;;2.45;0.90;;;;;;;;;;2081295;28;20029;-74
2024/01/03 00:25:15;;;;;;;2.80;1.17;;;;;;;;;;2081012;28;20104;-73
2024/01/03 00:26:35;;;;;;;1.85;1.20;;;;;;;;;;2074005;28;20033;-73
2024/01/03 00:27:54;;;;;;;5.05;1.25;;;;;;;;;;2077458;28;20025;-74
2024/01/03 00:29:22;;;;;;;1.80;1.10;;;;;;;;;;2068430;28;20694;-73
2024/01/03 00:30:41;;;;;;;3.22;0.85;;;;;;;;;;2060961;28;20026;-74
2024/01/03 00:32:02;;;;;;;0.82;0.75;;;;;;;;;;2063867;28;20026;-74
2024/01/03 00:33:21;;;;;;;1.17;0.95;;;;;;;;;;2064800;28;20038;-73
2024/01/03 00:34:40;;;;;;;3.03;1.20;;;;;;;;;;2064426;28;20030;-73
2024/01/03 00:36:00;;;;;;;2.28;0.93;;;;;;;;;;2061402;28;20030;-74
2024/01/03 00:37:24;;;;;;;1.65;0.90;;;;;;;;;;2064685;28;20038;-73
2024/01/03 00:38:44;;;;;;;2.28;0.80;;;;;;;;;;2063751;28;20022;-73
2024/01/03 00:40:04;;;;;;;1.33;1.08;;;;;;;;;;2076917;28;20462;-74
2024/01/03 00:41:23;;;;;;;1.42;1.10;;;;;;;;;;2069690;28;20081;-73
2024/01/03 00:42:42;;;;;;;3.88;0.93;;;;;;;;;;2071885;28;20026;-75
2024/01/03 00:44:01;;;;;;;0.95;0.88;;;;;;;;;;2065497;28;20034;-73
2024/01/03 00:45:21;;;;;;;2.75;0.70;;;;;;;;;;2062888;28;20567;-73
2024/01/03 00:46:40;;;;;;;1.38;1.00;;;;;;;;;;2062046;28;20395;-74
2024/01/03 00:47:59;;;;;;;2.53;1.00;;;;;;;;;;2062708;28;20027;-74
2024/01/03 00:49:19;;;;;;;1.00;0.80;;;;;;;;;;2065215;28;20030;-73
2024/01/03 00:50:38;;;;;;;2.90;0.75;;;;;;;;;;2062756;28;20512;-74
2024/01/03 00:51:59;;;;;;;1.75;0.88;;;;;;;;;;2060083;28;20062;-73
2024/01/03 00:53:18;;;;;;;1.25;0.98;;;;;;;;;;2067762;28;20015;-76
2024/01/03 00:54:38;;;;;;;3.97;1.00;;;;;;;;;;2071999;28;20085;-75
2024/01/03 00:55:57;;;;;;;2.33;0.93;;;;;;;;;;2069152;28;20030;-74
2024/01/03 00:57:17;;;;;;;1.45;0.77;;;;;;;;;;2066475;28;20042;-74
2024/01/03 00:58:36;;;;;;;1.02;0.70;;;;;;;;;;2066867;28;20053;-74
2024/01/03 00:59:55;;;;;;;1.00;0.90;;;;;;;;;;2064116;28;20026;-75
2024/01/03 01:01:15;;;;;;;2.80;1.10;;;;;;;;;;2066200;28;20094;-73
2024/01/03 01:02:34;;;;;;;2.20;0.85;;;;;;;;;;2061852;28;20061;-73
2024/01/03 01:03:53;;;;;;;3.13;0.88;;;;;;;;;;2062948;28;20031;-73
2024/01/03 01:05:12;;;;;;;1.35;0.60;;;;;;;;;;2061685;28;20034;-75
2024/01/03 01:06:32;;;;;;;0.80;0.60;;;;;;;;;;2062246;28;20030;-73
2024/01/03 01:07:51;;;;;;;2.92;0.63;;;;;;;;;;2069089;28;20385;-74
2024/01/03 01:09:10;;;;;;;1.67;0.70;;;;;;;;;;2069259;28;20018;-75
2024/01/03 01:10:29;;;;;;;0.50;0.50;;;;;;;;;;2065967;28;20131;-74
2024/01/03 01:11:50;;;;;;;2.13;0.90;;;;;;;;;;2063388;28;20042;-73
2024/01/03 01:13:10;;;;;;;1.48;0.88;;;;;;;;;;2063464;28;20555;-72
2024/01/03 01:14:29;;;;;;;1.15;0.95;;;;;;;;;;2060331;28;20432;-74
2024/01/03 01:15:48;;;;;;;3.25;1.08;;;;;;;;;;2061353;28;20023;-74
2024/01/03 01:17:07;;;;;;;1.77;0.60;;;;;;;;;;2063508;28;20451;-73
2024/01/03 01:18:26;;;;;;;1.52;0.80;;;;;;;;;;2060151;28;20043;-74
2024/01/03 01:19:45;;;;;;;1.13;0.80;;;;;;;;;;2062354;28;20108;-74
2024/01/03 01:21:04;;;;;;;1.92;0.55;;;;;;;;;;2061970;28;20034;-74
2024/01/03 01:22:25;;;;;;;1.60;0.82;;;;;;;;;;2062979;28;20038;-74
2024/01/03 01:23:44;;;;;;;0.98;0.82;;;;;;;;;;2061699;28;20026;-74
2024/01/03 01:25:03;;;;;;;1.42;0.80;;;;;;;;;;2064259;28;20026;-73
2024/01/03 01:26:22;;;;;;;0.77;0.60;;;;;;;;;;2061611;28;20039;-73
2024/01/03 01:27:41;;;;;;;0.77;0.70;;;;;;;;;;2062578;28;20038;-75
2024/01/03 01:29:00;;;;;;;1.90;0.90;;;;;;;;;;2068729;28;20392;-73
2024/01/03 01:30:22;;;;;;;0.68;0.50;;;;;;;;;;2078981;28;20025;-73
2024/01/03 01:31:41;;;;;;;1.30;0.65;;;;;;;;;;2078467;28;20026;-73
2024/01/03 01:33:00;;;;;;;0.77;0.77;;;;;;;;;;2080185;28;20029;-73
2024/01/03 01:34:19;;;;;;;1.33;0.73;;;;;;;;;;2078990;28;20029;-74
2024/01/03 01:35:39;;;;;;;1.60;0.70;;;;;;;;;;2080067;28;20041;-73
2024/01/03 01:36:58;;;;;;;1.13;0.80;;;;;;;;;;2078791;28;20044;-74
2024/01/03 01:38:17;;;;;;;3.38;0.80;;;;;;;;;;2081212;28;20037;-74
2024/01/03 01:39:36;;;;;;;1.25;0.80;;;;;;;;;;2081813;28;20033;-74
2024/01/03 01:40:55;;;;;;;1.35;0.50;;;;;;;;;;2078612;28;20050;-72
2024/01/03 01:42:13;;;;;;;2.83;0.88;;;;;;;;;;2071409;28;20040;-73
2024/01/03 01:43:32;;;;;;;1.25;0.80;;;;;;;;;;2078875;28;20084;-73
2024/01/03 01:44:51;;;;;;;1.10;0.73;;;;;;;;;;2081130;28;20022;-73
2024/01/03 01:46:11;;;;;;;7.50;1.00;;;;;;;;;;2080535;28;20021;-73
2024/01/03 01:47:30;;;;;;;1.27;0.70;;;;;;;;;;2073711;28;20041;-73
2024/01/03 01:48:50;;;;;;;3.45;1.00;;;;;;;;;;2081701;28;20022;-73
2024/01/03 01:50:10;;;;;;;1.17;0.80;;;;;;;;;;2084846;28;20041;-73
2024/01/03 01:51:29;;;;;;;4.13;0.95;;;;;;;;;;2079910;28;20030;-75
2024/01/03 01:52:49;;;;;;;0.90;0.70;;;;;;;;;;2080806;28;20034;-73
2024/01/03 01:54:08;;;;;;;4.43;0.80;;;;;;;;;;2077116;28;20026;-73
2024/01/03 01:55:27;;;;;;;2.03;0.80;;;;;;;;;;2073219;28;20088;-73
2024/01/03 01:56:47;;;;;;;1.92;0.77;;;;;;;;;;2066386;28;20123;-73
2024/01/03 01:58:07;;;;;;;1.27;0.80;;;;;;;;;;2068957;28;20575;-74
2024/01/03 01:59:27;;;;;;;0.77;0.63;;;;;;;;;;2078178;28;20021;-75
2024/01/03 02:00:46;;;;;;;2.67;0.70;;;;;;;;;;2082079;28;20379;-73
2024/01/03 02:02:05;;;;;;;1.77;0.77;;;;;;;;;;2073889;28;20026;-73
2024/01/03 02:03:24;;;;;;;1.55;0.60;;;;;;;;;;2077746;28;20021;-74
2024/01/03 02:04:44;;;;;;;1.38;0.90;;;;;;;;;;2090264;28;20025;-73
2024/01/03 02:06:05;;;;;;;2.00;0.70;;;;;;;;;;2078096;28;20038;-75
2024/01/03 02:07:25;;;;;;;1.02;0.80;;;;;;;;;;2085004;28;20088;-76
2024/01/03 02:08:44;;;;;;;2.03;0.65;;;;;;;;;;2080427;28;20030;-73
2024/01/03 02:10:03;;;;;;;1.92;0.70;;;;;;;;;;2074227;28;20061;-73
2024/01/03 02:11:22;;;;;;;3.97;1.17;;;;;;;;;;2079552;28;20029;-74
2024/01/03 02:12:41;;;;;;;0.93;0.50;;;;;;;;;;2082573;28;20029;-73
2024/01/03 02:14:00;;;;;;;1.15;0.80;;;;;;;;;;2077297;28;20038;-73
2024/01/03 02:15:18;;;;;;;1.63;0.63;;;;;;;;;;2082669;28;20058;-74
2024/01/03 02:16:38;;;;;;;1.77;0.82;;;;;;;;;;2090402;28;20014;-75
2024/01/03 02:17:57;;;;;;;2.72;0.70;;;;;;;;;;2072045;28;20037;-73
2024/01/03 02:19:16;;;;;;;1.23;0.70;;;;;;;;;;2076442;28;20041;-74
2024/01/03 02:20:36;;;;;;;1.70;0.70;;;;;;;;;;2080865;28;20022;-75
2024/01/03 02:21:56;;;;;;;2.78;0.80;;;;;;;;;;2068262;28;20037;-74
2024/01/03 02:23:16;;;;;;;2.10;0.90;;;;;;;;;;2080381;28;20486;-73
2024/01/03 02:24:35;;;;;;;2.40;0.75;;;;;;;;;;2079735;28;20034;-74
2024/01/03 02:25:54;;;;;;;1.80;0.50;;;;;;;;;;2079935;28;20026;-73
2024/01/03 02:27:13;;;;;;;2.90;0.73;;;;;;;;;;2080963;28;20506;-75
2024/01/03 02:28:32;;;;;;;1.23;0.77;;;;;;;;;;2082406;28;20030;-74
2024/01/03 02:29:50;;;;;;;1.75;0.70;;;;;;;;;;2080325;28;20038;-73
2024/01/03 02:31:09;;;;;;;1.95;0.65;;;;;;;;;;2077178;28;20581;-73
2024/01/03 02:32:28;;;;;;;1.02;0.90;;;;;;;;;;2078764;28;20034;-74
2024/01/03 02:33:47;;;;;;;1.85;0.90;;;;;;;;;;2076068;28;20038;-73
2024/01/03 02:35:06;;;;;;;0.82;0.70;;;;;;;;;;2076447;28;20125;-73
2024/01/03 02:36:26;;;;;;;2.40;0.63;;;;;;;;;;2073103;28;20035;-73
2024/01/03 02:37:45;;;;;;;1.00;0.90;;;;;;;;;;2079139;28;20038;-73
2024/01/03 02:39:04;;;;;;;1.90;0.80;;;;;;;;;;2081653;28;20478;-75
2024/01/03 02:40:23;;;;;;;3.15;0.90;;;;;;;;;;2074740;28;20717;-73
2024/01/03 02:41:43;;;;;;;2.90;0.95;;;;;;;;;;2073835;28;20117;-74
2024/01/03 02:43:02;;;;;;;3.25;0.93;;;;;;;;;;2077664;28;20037;-73
2024/01/03 02:44:23;;;;;;;2.90;0.95;;;;;;;;;;2083343;28;20038;-74
2024/01/03 02:45:42;;;;;;;3.80;1.10;;;;;;;;;;2080854;28;20030;-73
2024/01/03 02:47:01;;;;;;;1.45;0.70;;;;;;;;;;2082866;28;20527;-74
2024/01/03 02:48:20;;;;;;;3.75;1.35;;;;;;;;;;2081127;28;20514;-74
2024/01/03 02:49:39;;;;;;;2.63;0.90;;;;;;;;;;2075604;28;20033;-73
2024/01/03 02:50:58;;;;;;;1.15;1.00;;;;;;;;;;2074709;28;20505;-74
2024/01/03 02:52:17;;;;;;;1.40;0.60;;;;;;;;;;2072979;28;20446;-74
2024/01/03 02:53:36;;;;;;;1.55;0.90;;;;;;;;;;2078929;28;20077;-74
2024/01/03 02:54:55;;;;;;;2.30;1.15;;;;;;;;;;2081374;28;20553;-73
2024/01/03 02:56:14;;;;;;;1.33;1.08;;;;;;;;;;2073177;28;20026;-75
2024/01/03 02:57:33;;;;;;;2.28;0.82;;;;;;;;;;2071468;28;20041;-72
2024/01/03 02:58:52;;;;;;;3.60;0.90;;;;;;;;;;2078526;28;20034;-73
2024/01/03 03:00:11;;;;;;;0.98;0.60;;;;;;;;;;2072449;28;20021;-73
2024/01/03 03:01:30;;;;;;;1.38;0.68;;;;;;;;;;2071616;28;20050;-75
2024/01/03 03:02:49;;;;;;;3.20;0.98;;;;;;;;;;2080451;28;21440;-73
2024/01/03 03:04:08;;;;;;;3.13;0.95;;;;;;;;;;2084661;28;20033;-73
2024/01/03 03:05:27;;;;;;;1.85;0.80;;;;;;;;;;2085952;28;20034;-73
2024/01/03 03:06:46;;;;;;;1.95;0.90;;;;;;;;;;2082245;28;20132;-73
2024/01/03 03:08:06;;;;;;;1.10;0.77;;;;;;;;;;2082293;28;20030;-73
2024/01/03 03:09:25;;;;;;;1.33;0.65;;;;;;;;;;2086146;28;20092;-74
2024/01/03 03:10:44;;;;;;;2.25;0.90;;;;;;;;;;2081691;28;20026;-73
2024/01/03 03:12:06;;;;;;;1.42;0.80;;;;;;;;;;2071137;28;20045;-74
2024/01/03 03:13:26;;;;;;;2.78;0.70;;;;;;;;;;2071537;28;20121;-73
2024/01/03 03:14:45;;;;;;;6.38;0.80;;;;;;;;;;2074398;28;20077;-72
2024/01/03 03:16:06;;;;;;;2.30;0.65;;;;;;;;;;2089115;28;20025;-73
2024/01/03 03:17:25;;;;;;;1.13;0.90;;;;;;;;;;2089508;28;20048;-76
2024/01/03 03:18:44;;;;;;;1.55;0.75;;;;;;;;;;2080609;28;20026;-74
2024/01/03 03:20:03;;;;;;;2.53;0.98;;;;;;;;;;2072819;28;20546;-73
2024/01/03 03:21:23;;;;;;;3.13;0.70;;;;;;;;;;2076307;28;20025;-73
2024/01/03 03:22:42;;;;;;;2.28;0.80;;;;;;;;;;2073397;28;20034;-74
2024/01/03 03:24:01;;;;;;;2.63;0.80;;;;;;;;;;2077563;28;20074;-74
2024/01/03 03:25:20;;;;;;;3.67;0.80;;;;;;;;;;2075293;28;20017;-73
2024/01/03 03:26:39;;;;;;;1.10;1.00;;;;;;;;;;2087396;28;20037;-73
2024/01/03 03:27:58;;;;;;;0.90;0.60;;;;;;;;;;2086136;28;20033;-73
2024/01/03 03:29:17;;;;;;;2.72;0.90;;;;;;;;;;2077054;28;20273;-73
2024/01/03 03:30:36;;;;;;;2.42;0.93;;;;;;;;;;2074313;28;20034;-73
2024/01/03 03:31:55;;;;;;;4.63;0.90;;;;;;;;;;2077156;28;20029;-73
2024/01/03 03:33:14;;;;;;;1.35;1.02;;;;;;;;;;2073062;28;20104;-73
2024/01/03 03:34:34;;;;;;;3.42;0.70;;;;;;;;;;2079066;28;20029;-73
2024/01/03 03:35:53;;;;;;;4.07;0.88;;;;;;;;;;2076408;28;20049;-74
2024/01/03 03:37:12;;;;;;;1.05;0.90;;;;;;;;;;2072739;28;20041;-74
2024/01/03 03:38:35;;;;;;;0.65;0.60;;;;;;;;;;2076520;28;20025;-73
2024/01/03 03:39:54;;;;;;;3.90;0.90;;;;;;;;;;2079746;28;20065;-73
2024/01/03 03:41:13;;;;;;;3.58;0.70;;;;;;;;;;2073882;28;20506;-72
2024/01/03 03:42:32;;;;;;;1.95;0.90;;;;;;;;;;2075624;28;20483;-73
2024/01/03 03:43:51;;;;;;;1.50;0.88;;;;;;;;;;2075316;28;20041;-73
2024/01/03 03:45:10;;;;;;;1.50;0.52;;;;;;;;;;2077799;28;20340;-72
2024/01/03 03:46:29;;;;;;;1.70;0.70;;;;;;;;;;2080080;28;20026;-74
2024/01/03 03:47:48;;;;;;;1.48;1.00;;;;;;;;;;2081380;28;20073;-73
2024/01/03 03:49:08;;;;;;;1.90;1.00;;;;;;;;;;2076125;28;20487;-73
2024/01/03 03:50:27;;;;;;;2.75;0.85;;;;;;;;;;2075629;28;20820;-73
2024/01/03 03:51:46;;;;;;;0.82;0.50;;;;;;;;;;2080399;28;20037;-73
2024/01/03 03:53:10;;;;;;;2.30;0.80;;;;;;;;;;2074475;28;20037;-75
2024/01/03 03:54:29;;;;;;;1.42;0.90;;;;;;;;;;2074403;28;20042;-73
2024/01/03 03:55:47;;;;;;;2.28;1.23;;;;;;;;;;2074519;28;20076;-73
2024/01/03 03:57:06;;;;;;;4.43;1.00;;;;;;;;;;2077415;28;20022;-73
2024/01/03 03:58:25;;;;;;;1.23;0.73;;;;;;;;;;2080858;28;20092;-74
2024/01/03 03:59:44;;;;;;;0.90;0.60;;;;;;;;;;2081097;28;20057;-73
2024/01/03 04:01:06;;;;;;;2.40;0.70;;;;;;;;;;2076111;28;20041;-73
2024/01/03 04:02:28;;;;;;;2.05;0.80;;;;;;;;;;2068770;28;20115;-75
2024/01/03 04:03:47;;;;;;;2.30;0.93;;;;;;;;;;2077664;28;20105;-74
2024/01/03 04:05:07;;;;;;;1.60;0.70;;;;;;;;;;2072060;28;20034;-75
2024/01/03 04:06:26;;;;;;;1.83;0.60;;;;;;;;;;2079367;28;20029;-73
2024/01/03 04:07:45;;;;;;;1.92;0.65;;;;;;;;;;2073925;28;20053;-73
2024/01/03 04:09:04;;;;;;;2.03;0.70;;;;;;;;;;2079563;28;20025;-73
2024/01/03 04:10:23;;;;;;;1.30;0.50;;;;;;;;;;2074616;28;20045;-73
2024/01/03 04:11:43;;;;;;;0.80;0.70;;;;;;;;;;2086511;28;20013;-74
2024/01/03 04:13:02;;;;;;;2.17;0.90;;;;;;;;;;2079707;28;20041;-73
2024/01/03 04:14:21;;;;;;;3.22;1.00;;;;;;;;;;2074115;28;20017;-75
2024/01/03 04:15:40;;;;;;;0.85;0.73;;;;;;;;;;2077341;28;20025;-73
2024/01/03 04:16:59;;;;;;;1.33;0.93;;;;;;;;;;2074067;28;20514;-74
2024/01/03 04:18:19;;;;;;;1.60;0.60;;;;;;;;;;2071869;28;20038;-73
2024/01/03 04:19:38;;;;;;;5.85;0.80;;;;;;;;;;2070813;28;20029;-73
2024/01/03 04:20:57;;;;;;;1.90;0.80;;;;;;;;;;2071530;28;20022;-73
2024/01/03 04:22:16;;;;;;;1.17;0.85;;;;;;;;;;2077235;28;20017;-75
2024/01/03 04:23:35;;;;;;;1.42;0.50;;;;;;;;;;2073415;28;20026;-73
2024/01/03 04:24:54;;;;;;;2.95;0.57;;;;;;;;;;2067821;28;20025;-74
2024/01/03 04:26:13;;;;;;;4.63;1.17;;;;;;;;;;2074563;28;20072;-73
2024/01/03 04:27:32;;;;;;;1.75;0.77;;;;;;;;;;2073109;28;20022;-73
2024/01/03 04:28:51;;;;;;;2.90;0.93;;;;;;;;;;2077266;28;20021;-73
2024/01/03 04:30:10;;;;;;;0.57;0.57;;;;;;;;;;2079836;28;22150;-73
2024/01/03 04:31:28;;;;;;;1.20;1.10;;;;;;;;;;2079888;28;20038;-74
2024/01/03 04:32:47;;;;;;;4.60;0.73;;;;;;;;;;2068340;28;20030;-73
2024/01/03 04:34:07;;;;;;;3.08;0.70;;;;;;;;;;2069831;28;20022;-76
2024/01/03 04:35:31;;;;;;;3.85;0.82;;;;;;;;;;2077796;28;20022;-74
2024/01/03 04:36:50;;;;;;;1.67;0.80;;;;;;;;;;2079741;28;20463;-72
2024/01/03 04:38:09;;;;;;;6.55;1.00;;;;;;;;;;2078758;28;20034;-76
2024/01/03 04:39:28;;;;;;;1.60;0.70;;;;;;;;;;2073491;28;20033;-74
2024/01/03 04:40:47;;;;;;;2.80;0.75;;;;;;;;;;2078988;28;20033;-74
2024/01/03 04:42:06;;;;;;;0.98;0.88;;;;;;;;;;2080157;28;20021;-74
2024/01/03 04:43:25;;;;;;;1.50;0.90;;;;;;;;;;2080205;28;21795;-73
2024/01/03 04:44:44;;;;;;;4.78;1.08;;;;;;;;;;2073475;28;20064;-73
2024/01/03 04:46:04;;;;;;;1.75;0.85;;;;;;;;;;2073401;28;20021;-73
2024/01/03 04:47:23;;;;;;;2.05;0.80;;;;;;;;;;2079450;28;20021;-74
2024/01/03 04:48:42;;;;;;;0.98;0.70;;;;;;;;;;2088238;28;20021;-75
2024/01/03 04:50:01;;;;;;;7.53;0.70;;;;;;;;;;2082004;28;20054;-76
2024/01/03 04:51:20;;;;;;;1.05;0.70;;;;;;;;;;2080453;28;20025;-74
2024/01/03 04:52:39;;;;;;;0.95;0.90;;;;;;;;;;2070872;28;20598;-73
2024/01/03 04:53:59;;;;;;;2.72;1.10;;;;;;;;;;2069880;28;20027;-75
2024/01/03 04:55:18;;;;;;;1.33;0.60;;;;;;;;;;2072777;28;20400;-72
2024/01/03 04:56:37;;;;;;;3.92;0.88;;;;;;;;;;2073866;28;20052;-75
2024/01/03 04:57:57;;;;;;;1.38;0.80;;;;;;;;;;2083146;28;20022;-72
2024/01/03 04:59:16;;;;;;;1.27;0.82;;;;;;;;;;2081386;28;20037;-73
2024/01/03 05:00:36;;;;;;;1.50;0.77;;;;;;;;;;2075767;28;20104;-74
2024/01/03 05:01:55;;;;;;;4.40;0.80;;;;;;;;;;2068119;28;20026;-73
2024/01/03 05:03:14;;;;;;;1.55;0.60;;;;;;;;;;2070196;28;20411;-75
2024/01/03 05:04:34;;;;;;;1.40;0.82;;;;;;;;;;2065564;28;20149;-75
2024/01/03 05:05:53;;;;;;;1.90;0.90;;;;;;;;;;2066961;28;20069;-74
2024/01/03 05:07:12;;;;;;;3.20;0.82;;;;;;;;;;2070918;28;20022;-74
2024/01/03 05:08:31;;;;;;;2.80;1.10;;;;;;;;;;2078613;28;20034;-74
2024/01/03 05:09:50;;;;;;;0.70;0.70;;;;;;;;;;2079004;28;20033;-74
2024/01/03 05:11:10;;;;;;;3.83;0.95;;;;;;;;;;2079321;28;20554;-74
2024/01/03 05:12:29;;;;;;;10.75;0.95;;;;;;;;;;2079080;28;20100;-74
2024/01/03 05:13:48;;;;;;;2.60;0.77;;;;;;;;;;2081751;28;20124;-74
2024/01/03 05:15:08;;;;;;;1.98;1.20;;;;;;;;;;2088372;28;20044;-75
2024/01/03 05:16:27;;;;;;;2.25;0.82;;;;;;;;;;2082854;28;20014;-75
2024/01/03 05:17:46;;;;;;;0.82;0.82;;;;;;;;;;2085863;28;21189;-75
2024/01/03 05:19:05;;;;;;;3.15;1.20;;;;;;;;;;2080746;28;20034;-75
2024/01/03 05:20:25;;;;;;;2.85;0.95;;;;;;;;;;2085295;28;20033;-74
2024/01/03 05:21:44;;;;;;;3.80;1.20;;;;;;;;;;2085983;28;20042;-74
2024/01/03 05:23:03;;;;;;;3.35;1.50;;;;;;;;;;2084596;28;20703;-74
2024/01/03 05:24:21;;;;;;;5.00;1.63;;;;;;;;;;2081787;28;20037;-75
2024/01/03 05:25:41;;;;;;;1.25;0.90;;;;;;;;;;2082162;28;20613;-74
2024/01/03 05:27:00;;;;;;;2.65;0.80;;;;;;;;;;2081960;28;20034;-74
2024/01/03 05:28:19;;;;;;;2.95;1.00;;;;;;;;;;2082431;28;20025;-75
2024/01/03 05:29:38;;;;;;;3.78;1.10;;;;;;;;;;2065655;28;20050;-75
2024/01/03 05:31:00;;;;;;;5.07;0.90;;;;;;;;;;2064331;28;20503;-75
2024/01/03 05:32:19;;;;;;;2.25;1.27;;;;;;;;;;2065417;28;20026;-74
2024/01/03 05:33:38;;;;;;;1.85;1.05;;;;;;;;;;2064857;28;20507;-74
2024/01/03 05:34:57;;;;;;;2.35;1.00;;;;;;;;;;2062469;28;20026;-75
2024/01/03 05:36:16;;;;;;;2.30;0.90;;;;;;;;;;2063584;28;20473;-74
2024/01/03 05:37:36;;;;;;;4.50;1.52;;;;;;;;;;2064808;28;20026;-74
2024/01/03 05:38:55;;;;;;;1.42;1.15;;;;;;;;;;2063661;28;20090;-75
2024/01/03 05:40:18;;;;;;;3.47;0.80;;;;;;;;;;2064218;28;20077;-74
2024/01/03 05:41:36;;;;;;;3.15;1.00;;;;;;;;;;2065556;28;20030;-74
2024/01/03 05:42:56;;;;;;;1.42;1.00;;;;;;;;;;2066141;28;20030;-74
2024/01/03 05:44:15;;;;;;;3.80;1.25;;;;;;;;;;2063836;28;20034;-74
2024/01/03 05:45:34;;;;;;;1.70;1.27;;;;;;;;;;2063097;28;20535;-74
2024/01/03 05:46:53;;;;;;;1.70;1.05;;;;;;;;;;2063806;28;20480;-76
2024/01/03 05:48:12;;;;;;;1.70;0.95;;;;;;;;;;2065156;28;20026;-74
2024/01/03 05:49:31;;;;;;;2.63;1.60;;;;;;;;;;2064587;28;20380;-74
2024/01/03 05:50:50;;;;;;;3.72;1.10;;;;;;;;;;2065305;28;20647;-74
2024/01/03 05:52:09;;;;;;;1.67;1.20;;;;;;;;;;2063304;28;20034;-74
2024/01/03 05:53:28;;;;;;;2.80;1.02;;;;;;;;;;2064951;28;20034;-74
2024/01/03 05:54:50;;;;;;;2.45;1.23;;;;;;;;;;2064942;28;20027;-73
2024/01/03 05:56:09;;;;;;;2.95;1.25;;;;;;;;;;2066082;28;20476;-74
2024/01/03 05:57:31;;;;;;;2.05;1.15;;;;;;;;;;2062607;28;20042;-76
2024/01/03 05:58:51;;;;;;;5.05;1.17;;;;;;;;;;2061896;28;20038;-74
2024/01/03 06:00:15;;;;;;;4.25;1.52;;;;;;;;;;2065339;28;20030;-74
2024/01/03 06:01:34;;;;;;;5.47;1.27;;;;;;;;;;2064686;28;20054;-73
2024/01/03 06:02:53;;;;;;;3.92;1.10;;;;;;;;;;2063027;28;20446;-74
2024/01/03 06:04:13;;;;;;;10.85;1.60;;;;;;;;;;2062238;28;20052;-73
2024/01/03 06:05:35;;;;;;;3.13;1.05;;;;;;;;;;2064134;28;20471;-73
2024/01/03 06:06:54;;;;;;;3.08;1.08;;;;;;;;;;2065000;28;20046;-73
2024/01/03 06:08:13;;;;;;;4.28;0.85;;;;;;;;;;2065008;28;20023;-74
2024/01/03 06:09:32;;;;;;;2.83;0.98;;;;;;;;;;2063138;28;20039;-73
2024/01/03 06:10:52;;;;;;;2.72;1.10;;;;;;;;;;2059182;28;20512;-73
2024/01/03 06:12:11;;;;;;;1.83;0.88;;;;;;;;;;2060912;28;20034;-73
2024/01/03 06:13:30;;;;;;;1.13;0.80;;;;;;;;;;2065643;28;20034;-73
2024/01/03 06:14:49;;;;;;;2.63;1.08;;;;;;;;;;2066436;28;20035;-73
2024/01/03 06:16:09;;;;;;;2.25;1.00;;;;;;;;;;2063466;28;20022;-74
2024/01/03 06:17:28;;;;;;;0.75;0.75;;;;;;;;;;2064527;28;20030;-74
2024/01/03 06:18:47;;;;;;;2.20;1.30;;;;;;;;;;2064868;28;20498;-73
2024/01/03 06:20:07;;;;;;;4.03;0.95;;;;;;;;;;2066756;28;20480;-74
2024/01/03 06:21:29;;;;;;;3.05;1.25;;;;;;;;;;2069704;28;20089;-73
2024/01/03 06:22:48;;;;;;;1.85;1.08;;;;;;;;;;2072256;28;20249;-74
2024/01/03 06:24:07;;;;;;;1.52;0.93;;;;;;;;;;2072889;28;20030;-76
2024/01/03 06:25:26;;;;;;;4.93;1.17;;;;;;;;;;2065906;28;20042;-74
2024/01/03 06:26:45;;;;;;;3.25;1.02;;;;;;;;;;2060455;28;20030;-73
2024/01/03 06:28:04;;;;;;;1.52;1.10;;;;;;;;;;2063021;28;20439;-73
2024/01/03 06:29:24;;;;;;;3.65;1.00;;;;;;;;;;2071326;28;20128;-74
2024/01/03 06:30:43;;;;;;;1.92;0.90;;;;;;;;;;2077284;28;20026;-74
2024/01/03 06:32:02;;;;;;;3.70;1.20;;;;;;;;;;2075949;28;20018;-76
2024/01/03 06:33:21;;;;;;;1.00;1.00;;;;;;;;;;2073308;28;20026;-74
2024/01/03 06:34:40;;;;;;;1.65;1.50;;;;;;;;;;2075199;28;20025;-74
2024/01/03 06:35:59;;;;;;;2.22;1.17;;;;;;;;;;2075895;28;20037;-74
2024/01/03 06:37:18;;;;;;;1.30;1.20;;;;;;;;;;2074710;28;20027;-75
2024/01/03 06:38:39;;;;;;;1.77;1.00;;;;;;;;;;2074641;28;20026;-76
2024/01/03 06:39:58;;;;;;;4.40;1.27;;;;;;;;;;2076872;28;20116;-74
2024/01/03 06:41:18;;;;;;;6.53;0.95;;;;;;;;;;2078541;28;20109;-74
2024/01/03 06:42:36;;;;;;;2.35;1.20;;;;;;;;;;2076080;28;20482;-75
2024/01/03 06:43:55;;;;;;;1.80;1.00;;;;;;;;;;2076201;28;20034;-75
2024/01/03 06:45:14;;;;;;;2.05;0.90;;;;;;;;;;2073789;28;20021;-74
2024/01/03 06:46:33;;;;;;;2.17;1.15;;;;;;;;;;2076408;28;20030;-73
2024/01/03 06:47:52;;;;;;;2.22;1.25;;;;;;;;;;2074906;28;20042;-74
2024/01/03 06:49:11;;;;;;;3.58;1.35;;;;;;;;;;2076191;28;20479;-74
2024/01/03 06:50:30;;;;;;;1.85;0.95;;;;;;;;;;2074677;28;20033;-74
2024/01/03 06:51:49;;;;;;;4.00;1.10;;;;;;;;;;2073842;28;20022;-74
2024/01/03 06:53:08;;;;;;;7.13;1.10;;;;;;;;;;2072300;28;20033;-76
2024/01/03 06:54:27;;;;;;;1.52;1.30;;;;;;;;;;2075857;28;20507;-74
2024/01/03 06:55:49;;;;;;;3.10;1.17;;;;;;;;;;2077481;28;20066;-74
2024/01/03 06:57:08;;;;;;;3.30;1.17;;;;;;;;;;2081155;28;20089;-75
2024/01/03 06:58:27;;;;;;;2.03;1.20;;;;;;;;;;2082567;28;20034;-74
2024/01/03 06:59:47;;;;;;;2.67;1.10;;;;;;;;;;2083373;28;20033;-75
2024/01/03 07:01:06;;;;;;;1.73;1.20;;;;;;;;;;2075476;28;20437;-73
2024/01/03 07:02:25;;;;;;;2.50;1.00;;;;;;;;;;2070374;28;20038;-74
2024/01/03 07:03:44;;;;;;;3.22;1.30;;;;;;;;;;2075874;28;20041;-75
2024/01/03 07:05:05;;;;;;;2.20;1.00;;;;;;;;;;2075656;28;20034;-74
2024/01/03 07:06:23;;;;;;;1.40;1.30;;;;;;;;;;2077549;28;20030;-74
2024/01/03 07:07:43;;;;;;;2.40;1.40;;;;;;;;;;2082086;28;20034;-76
2024/01/03 07:09:02;;;;;;;3.20;1.00;;;;;;;;;;2081453;28;20043;-75
2024/01/03 07:10:21;;;;;;;6.05;1.20;;;;;;;;;;2069673;28;20405;-74
2024/01/03 07:11:40;;;;;;;1.88;1.00;;;;;;;;;;2070898;28;20101;-75
2024/01/03 07:12:59;;;;;;;2.35;1.05;;;;;;;;;;2070266;28;20519;-74
2024/01/03 07:14:18;;;;;;;3.05;0.98;;;;;;;;;;2076050;28;20038;-73
2024/01/03 07:15:37;;;;;;;1.88;1.02;;;;;;;;;;2073988;28;20058;-74
2024/01/03 07:16:57;;;;;;;1.20;1.10;;;;;;;;;;2077306;28;20033;-75
2024/01/03 07:18:16;;;;;;;3.97;1.10;;;;;;;;;;2074706;28;20026;-75
2024/01/03 07:19:35;;;;;;;1.95;1.25;;;;;;;;;;2077251;28;20057;-74
2024/01/03 07:20:54;;;;;;;1.50;1.20;;;;;;;;;;2077567;28;20026;-75
2024/01/03 07:22:13;;;;;;;2.47;1.20;;;;;;;;;;2078298;28;20030;-74
2024/01/03 07:23:32;;;;;;;4.03;1.08;;;;;;;;;;2074922;28;20030;-75
2024/01/03 07:24:51;;;;;;;4.35;1.10;;;;;;;;;;2075320;28;20022;-75
2024/01/03 07:26:10;;;;;;;1.13;1.02;;;;;;;;;;2076759;28;20022;-74
2024/01/03 07:27:29;;;;;;;2.45;1.08;;;;;;;;;;2076597;28;20065;-76
2024/01/03 07:28:48;;;;;;;6.68;1.42;;;;;;;;;;2073860;28;20033;-75
2024/01/03 07:30:08;;;;;;;2.75;1.17;;;;;;;;;;2067611;28;20081;-74
2024/01/03 07:31:27;;;;;;;2.05;1.00;;;;;;;;;;2064096;28;20118;-75
2024/01/03 07:32:46;;;;;;;3.22;1.38;;;;;;;;;;2067305;28;20026;-75
2024/01/03 07:34:05;;;;;;;1.42;1.10;;;;;;;;;;2064670;28;20101;-74
2024/01/03 07:35:24;;;;;;;1.70;1.10;;;;;;;;;;2065423;28;20058;-75
2024/01/03 07:36:43;;;;;;;1.80;1.00;;;;;;;;;;2068829;28;20026;-77
2024/01/03 07:38:03;;;;;;;3.00;1.40;;;;;;;;;;2070641;28;20034;-75
2024/01/03 07:39:22;;;;;;;1.23;1.05;;;;;;;;;;2067219;28;20481;-75
2024/01/03 07:40:41;;;;;;;2.35;1.17;;;;;;;;;;2065818;28;20052;-74
2024/01/03 07:42:00;;;;;;;2.17;1.20;;;;;;;;;;2064821;28;20026;-76
2024/01/03 07:43:19;;;;;;;2.15;1.25;;;;;;;;;;2065798;28;20030;-75
2024/01/03 07:44:41;;;;;;;2.35;1.10;;;;;;;;;;2063862;28;20046;-75
2024/01/03 07:46:00;;;;;;;2.13;1.10;;;;;;;;;;2064147;28;20109;-75
2024/01/03 07:47:19;;;;;;;9.02;1.65;;;;;;;;;;2061792;28;20035;-75
2024/01/03 07:48:38;;;;;;;5.13;1.13;;;;;;;;;;2065220;28;20034;-75
2024/01/03 07:49:57;;;;;;;1.40;1.30;;;;;;;;;;2063577;28;20528;-75
2024/01/03 07:51:21;;;;;;;1.70;1.13;;;;;;;;;;2063658;28;20026;-75
2024/01/03 07:52:42;;;;;;;2.00;1.30;;;;;;;;;;2060695;28;20058;-74
2024/01/03 07:54:02;;;;;;;3.95;1.27;;;;;;;;;;2065159;28;20018;-74
2024/01/03 07:55:29;;;;;;;1.67;1.17;;;;;;;;;;2070688;28;20050;-75
2024/01/03 07:57:06;;;;;;;1.77;1.33;;;;;;;;;;2054550;28;20514;-86